sensor_id;sensor_type;location;lat;lon;timestamp;P1;durP1;ratioP1;P2;durP2;ratioP2
11086;SDS011;5597;47.588;9.642;2023-03-12T00:02:05;10.93;;;8.73;;
11086;SDS011;5597;47.588;9.642;2023-03-12T00:04:31;9.77;;;8.03;;
11086;SDS011;5597;47.588;9.642;2023-03-12T00:06:58;10.57;;;8.67;;
11086;SDS011;5597;47.588;9.642;2023-03-12T00:09:24;9.10;;;7.80;;
11086;SDS011;5597;47.588;9.642;2023-03-12T00:11:49;8.80;;;7.80;;
11086;SDS011;5597;47.588;9.642;2023-03-12T00:14:15;9.50;;;7.90;;
11086;SDS011;5597;47.588;9.642;2023-03-12T00:16:41;9.43;;;7.80;;
11086;SDS011;5597;47.588;9.642;2023-03-12T00:19:07;8.73;;;7.33;;
11086;SDS011;5597;47.588;9.642;2023-03-12T00:21:35;7.60;;;6.63;;
11086;SDS011;5597;47.588;9.642;2023-03-12T00:24:00;8.30;;;6.93;;
11086;SDS011;5597;47.588;9.642;2023-03-12T00:26:26;7.70;;;6.87;;
11086;SDS011;5597;47.588;9.642;2023-03-12T00:28:51;7.30;;;6.23;;
11086;SDS011;5597;47.588;9.642;2023-03-12T00:31:22;6.97;;;5.70;;
11086;SDS011;5597;47.588;9.642;2023-03-12T00:33:51;6.70;;;6.00;;
11086;SDS011;5597;47.588;9.642;2023-03-12T00:36:17;6.43;;;5.57;;
11086;SDS011;5597;47.588;9.642;2023-03-12T00:38:45;6.83;;;6.10;;
11086;SDS011;5597;47.588;9.642;2023-03-12T00:41:11;5.67;;;5.07;;
11086;SDS011;5597;47.588;9.642;2023-03-12T00:43:37;5.43;;;4.47;;
11086;SDS011;5597;47.588;9.642;2023-03-12T00:46:02;5.27;;;4.77;;
11086;SDS011;5597;47.588;9.642;2023-03-12T00:48:28;5.40;;;4.80;;
11086;SDS011;5597;47.588;9.642;2023-03-12T00:50:54;4.93;;;4.27;;
11086;SDS011;5597;47.588;9.642;2023-03-12T00:53:20;4.83;;;4.30;;
11086;SDS011;5597;47.588;9.642;2023-03-12T00:55:45;4.73;;;4.00;;
11086;SDS011;5597;47.588;9.642;2023-03-12T00:58:11;4.67;;;3.97;;
11086;SDS011;5597;47.588;9.642;2023-03-12T01:00:36;4.40;;;4.00;;
11086;SDS011;5597;47.588;9.642;2023-03-12T01:03:02;4.17;;;3.53;;
11086;SDS011;5597;47.588;9.642;2023-03-12T01:05:28;4.17;;;3.77;;
11086;SDS011;5597;47.588;9.642;2023-03-12T01:07:53;4.17;;;3.40;;
11086;SDS011;5597;47.588;9.642;2023-03-12T01:10:20;4.60;;;4.00;;
11086;SDS011;5597;47.588;9.642;2023-03-12T01:12:45;4.40;;;3.77;;
11086;SDS011;5597;47.588;9.642;2023-03-12T01:15:15;4.23;;;3.67;;
11086;SDS011;5597;47.588;9.642;2023-03-12T01:17:41;4.23;;;3.70;;
11086;SDS011;5597;47.588;9.642;2023-03-12T01:20:07;4.37;;;3.97;;
11086;SDS011;5597;47.588;9.642;2023-03-12T01:22:34;4.80;;;4.23;;
11086;SDS011;5597;47.588;9.642;2023-03-12T01:25:00;5.53;;;4.30;;
11086;SDS011;5597;47.588;9.642;2023-03-12T01:27:25;5.27;;;4.70;;
11086;SDS011;5597;47.588;9.642;2023-03-12T01:29:51;5.60;;;4.23;;
11086;SDS011;5597;47.588;9.642;2023-03-12T01:32:17;5.47;;;4.63;;
11086;SDS011;5597;47.588;9.642;2023-03-12T01:34:43;4.77;;;4.27;;
11086;SDS011;5597;47.588;9.642;2023-03-12T01:37:09;5.57;;;4.53;;
11086;SDS011;5597;47.588;9.642;2023-03-12T01:39:34;5.17;;;4.67;;
11086;SDS011;5597;47.588;9.642;2023-03-12T01:42:00;5.60;;;4.70;;
11086;SDS011;5597;47.588;9.642;2023-03-12T01:44:26;5.30;;;4.80;;
11086;SDS011;5597;47.588;9.642;2023-03-12T01:46:52;6.00;;;5.33;;
11086;SDS011;5597;47.588;9.642;2023-03-12T01:52:11;6.80;;;6.10;;
11086;SDS011;5597;47.588;9.642;2023-03-12T01:54:42;6.80;;;5.97;;
11086;SDS011;5597;47.588;9.642;2023-03-12T01:57:14;7.20;;;6.07;;
11086;SDS011;5597;47.588;9.642;2023-03-12T01:59:46;7.40;;;6.37;;
11086;SDS011;5597;47.588;9.642;2023-03-12T02:02:20;6.47;;;5.77;;
11086;SDS011;5597;47.588;9.642;2023-03-12T02:04:51;6.73;;;5.70;;
11086;SDS011;5597;47.588;9.642;2023-03-12T02:07:25;6.73;;;5.90;;
11086;SDS011;5597;47.588;9.642;2023-03-12T02:09:51;7.50;;;5.87;;
11086;SDS011;5597;47.588;9.642;2023-03-12T02:12:16;6.87;;;6.03;;
11086;SDS011;5597;47.588;9.642;2023-03-12T02:14:42;6.70;;;5.80;;
11086;SDS011;5597;47.588;9.642;2023-03-12T02:17:08;7.13;;;6.27;;
11086;SDS011;5597;47.588;9.642;2023-03-12T02:19:37;6.67;;;5.87;;
11086;SDS011;5597;47.588;9.642;2023-03-12T02:22:10;7.40;;;5.90;;
11086;SDS011;5597;47.588;9.642;2023-03-12T02:27:12;6.53;;;5.47;;
11086;SDS011;5597;47.588;9.642;2023-03-12T02:29:40;6.40;;;5.30;;
11086;SDS011;5597;47.588;9.642;2023-03-12T02:32:07;5.77;;;4.73;;
11086;SDS011;5597;47.588;9.642;2023-03-12T02:34:36;5.30;;;4.43;;
11086;SDS011;5597;47.588;9.642;2023-03-12T02:37:02;4.93;;;4.23;;
11086;SDS011;5597;47.588;9.642;2023-03-12T02:39:27;5.07;;;4.57;;
11086;SDS011;5597;47.588;9.642;2023-03-12T02:41:54;5.77;;;4.87;;
11086;SDS011;5597;47.588;9.642;2023-03-12T02:44:25;6.03;;;5.23;;
11086;SDS011;5597;47.588;9.642;2023-03-12T02:46:55;5.50;;;4.60;;
11086;SDS011;5597;47.588;9.642;2023-03-12T02:49:25;5.80;;;4.67;;
11086;SDS011;5597;47.588;9.642;2023-03-12T02:51:55;6.33;;;4.87;;
11086;SDS011;5597;47.588;9.642;2023-03-12T02:54:21;5.10;;;4.10;;
11086;SDS011;5597;47.588;9.642;2023-03-12T02:56:48;5.23;;;4.50;;
11086;SDS011;5597;47.588;9.642;2023-03-12T02:59:16;5.50;;;4.87;;
11086;SDS011;5597;47.588;9.642;2023-03-12T03:01:44;5.27;;;4.60;;
11086;SDS011;5597;47.588;9.642;2023-03-12T03:04:11;5.67;;;4.80;;
11086;SDS011;5597;47.588;9.642;2023-03-12T03:06:38;5.23;;;4.50;;
11086;SDS011;5597;47.588;9.642;2023-03-12T03:09:07;4.17;;;3.60;;
11086;SDS011;5597;47.588;9.642;2023-03-12T03:11:32;3.83;;;3.30;;
11086;SDS011;5597;47.588;9.642;2023-03-12T03:13:58;3.90;;;3.20;;
11086;SDS011;5597;47.588;9.642;2023-03-12T03:16:24;3.17;;;2.87;;
11086;SDS011;5597;47.588;9.642;2023-03-12T03:18:49;3.37;;;2.97;;
11086;SDS011;5597;47.588;9.642;2023-03-12T03:21:15;4.17;;;2.90;;
11086;SDS011;5597;47.588;9.642;2023-03-12T03:23:42;3.10;;;2.70;;
11086;SDS011;5597;47.588;9.642;2023-03-12T03:26:09;3.17;;;2.57;;
11086;SDS011;5597;47.588;9.642;2023-03-12T03:28:34;3.07;;;2.67;;
11086;SDS011;5597;47.588;9.642;2023-03-12T03:31:00;2.83;;;2.57;;
11086;SDS011;5597;47.588;9.642;2023-03-12T03:33:30;2.90;;;2.60;;
11086;SDS011;5597;47.588;9.642;2023-03-12T03:35:58;3.30;;;2.87;;
11086;SDS011;5597;47.588;9.642;2023-03-12T03:38:25;3.43;;;3.07;;
11086;SDS011;5597;47.588;9.642;2023-03-12T03:40:52;3.20;;;2.90;;
11086;SDS011;5597;47.588;9.642;2023-03-12T03:43:17;3.43;;;3.00;;
11086;SDS011;5597;47.588;9.642;2023-03-12T03:45:43;3.20;;;2.80;;
11086;SDS011;5597;47.588;9.642;2023-03-12T03:48:12;3.30;;;3.00;;
11086;SDS011;5597;47.588;9.642;2023-03-12T03:50:38;3.43;;;3.00;;
11086;SDS011;5597;47.588;9.642;2023-03-12T03:53:05;4.13;;;3.40;;
11086;SDS011;5597;47.588;9.642;2023-03-12T03:55:35;4.20;;;3.43;;
11086;SDS011;5597;47.588;9.642;2023-03-12T03:58:02;4.13;;;3.40;;
11086;SDS011;5597;47.588;9.642;2023-03-12T04:00:27;5.83;;;4.67;;
11086;SDS011;5597;47.588;9.642;2023-03-12T04:02:53;4.80;;;4.30;;
11086;SDS011;5597;47.588;9.642;2023-03-12T04:05:19;4.53;;;4.10;;
11086;SDS011;5597;47.588;9.642;2023-03-12T04:07:45;4.70;;;4.07;;
11086;SDS011;5597;47.588;9.642;2023-03-12T04:10:10;4.43;;;3.87;;
11086;SDS011;5597;47.588;9.642;2023-03-12T04:12:36;5.43;;;4.13;;
11086;SDS011;5597;47.588;9.642;2023-03-12T04:15:02;4.70;;;4.00;;
11086;SDS011;5597;47.588;9.642;2023-03-12T04:17:28;5.00;;;4.23;;
11086;SDS011;5597;47.588;9.642;2023-03-12T04:19:54;4.50;;;3.70;;
11086;SDS011;5597;47.588;9.642;2023-03-12T04:22:20;4.27;;;3.87;;
11086;SDS011;5597;47.588;9.642;2023-03-12T04:24:45;4.97;;;4.07;;
11086;SDS011;5597;47.588;9.642;2023-03-12T04:27:11;4.70;;;4.10;;
11086;SDS011;5597;47.588;9.642;2023-03-12T04:29:36;4.57;;;3.63;;
11086;SDS011;5597;47.588;9.642;2023-03-12T04:32:03;4.10;;;3.70;;
11086;SDS011;5597;47.588;9.642;2023-03-12T04:34:29;4.50;;;3.70;;
11086;SDS011;5597;47.588;9.642;2023-03-12T04:36:55;4.13;;;3.70;;
11086;SDS011;5597;47.588;9.642;2023-03-12T04:39:20;4.07;;;3.60;;
11086;SDS011;5597;47.588;9.642;2023-03-12T04:41:46;3.70;;;3.30;;
11086;SDS011;5597;47.588;9.642;2023-03-12T04:44:12;4.33;;;3.83;;
11086;SDS011;5597;47.588;9.642;2023-03-12T04:46:38;3.73;;;3.27;;
11086;SDS011;5597;47.588;9.642;2023-03-12T04:49:04;3.53;;;3.20;;
11086;SDS011;5597;47.588;9.642;2023-03-12T04:51:30;3.47;;;3.17;;
11086;SDS011;5597;47.588;9.642;2023-03-12T04:53:56;3.73;;;2.90;;
11086;SDS011;5597;47.588;9.642;2023-03-12T04:56:22;4.07;;;3.07;;
11086;SDS011;5597;47.588;9.642;2023-03-12T04:58:49;3.30;;;3.00;;
11086;SDS011;5597;47.588;9.642;2023-03-12T05:01:18;4.50;;;2.80;;
11086;SDS011;5597;47.588;9.642;2023-03-12T05:03:53;3.43;;;2.93;;
11086;SDS011;5597;47.588;9.642;2023-03-12T05:06:19;3.80;;;2.80;;
11086;SDS011;5597;47.588;9.642;2023-03-12T05:08:46;3.43;;;2.90;;
11086;SDS011;5597;47.588;9.642;2023-03-12T05:11:13;3.10;;;2.40;;
11086;SDS011;5597;47.588;9.642;2023-03-12T05:13:39;3.90;;;3.33;;
11086;SDS011;5597;47.588;9.642;2023-03-12T05:16:05;3.80;;;3.40;;
11086;SDS011;5597;47.588;9.642;2023-03-12T05:18:31;4.23;;;3.57;;
11086;SDS011;5597;47.588;9.642;2023-03-12T05:23:30;4.63;;;4.17;;
11086;SDS011;5597;47.588;9.642;2023-03-12T05:25:56;4.80;;;4.13;;
11086;SDS011;5597;47.588;9.642;2023-03-12T05:28:22;5.50;;;4.70;;
11086;SDS011;5597;47.588;9.642;2023-03-12T05:30:53;5.40;;;4.77;;
11086;SDS011;5597;47.588;9.642;2023-03-12T05:33:19;5.73;;;4.67;;
11086;SDS011;5597;47.588;9.642;2023-03-12T05:35:45;5.50;;;4.70;;
11086;SDS011;5597;47.588;9.642;2023-03-12T05:38:11;4.63;;;4.03;;
11086;SDS011;5597;47.588;9.642;2023-03-12T05:40:36;5.10;;;4.10;;
11086;SDS011;5597;47.588;9.642;2023-03-12T05:43:02;4.63;;;4.10;;
11086;SDS011;5597;47.588;9.642;2023-03-12T05:45:28;4.70;;;3.90;;
11086;SDS011;5597;47.588;9.642;2023-03-12T05:47:53;3.97;;;3.57;;
11086;SDS011;5597;47.588;9.642;2023-03-12T05:50:19;4.53;;;3.83;;
11086;SDS011;5597;47.588;9.642;2023-03-12T05:52:44;4.27;;;3.60;;
11086;SDS011;5597;47.588;9.642;2023-03-12T05:55:10;5.13;;;4.20;;
11086;SDS011;5597;47.588;9.642;2023-03-12T05:57:36;4.80;;;3.90;;
11086;SDS011;5597;47.588;9.642;2023-03-12T06:00:02;4.23;;;3.83;;
11086;SDS011;5597;47.588;9.642;2023-03-12T06:02:28;4.60;;;3.77;;
11086;SDS011;5597;47.588;9.642;2023-03-12T06:04:53;4.17;;;3.60;;
11086;SDS011;5597;47.588;9.642;2023-03-12T06:07:21;3.93;;;3.33;;
11086;SDS011;5597;47.588;9.642;2023-03-12T06:09:47;3.80;;;3.40;;
11086;SDS011;5597;47.588;9.642;2023-03-12T06:12:13;4.80;;;3.93;;
11086;SDS011;5597;47.588;9.642;2023-03-12T06:14:38;3.80;;;3.40;;
11086;SDS011;5597;47.588;9.642;2023-03-12T06:17:04;4.97;;;4.10;;
11086;SDS011;5597;47.588;9.642;2023-03-12T06:19:29;4.50;;;3.63;;
11086;SDS011;5597;47.588;9.642;2023-03-12T06:21:55;4.00;;;3.47;;
11086;SDS011;5597;47.588;9.642;2023-03-12T06:24:21;4.70;;;4.20;;
11086;SDS011;5597;47.588;9.642;2023-03-12T06:26:46;4.37;;;3.97;;
11086;SDS011;5597;47.588;9.642;2023-03-12T06:29:12;5.07;;;4.27;;
11086;SDS011;5597;47.588;9.642;2023-03-12T06:31:37;3.83;;;3.43;;
11086;SDS011;5597;47.588;9.642;2023-03-12T06:34:05;3.67;;;3.23;;
11086;SDS011;5597;47.588;9.642;2023-03-12T06:36:31;4.10;;;3.60;;
11086;SDS011;5597;47.588;9.642;2023-03-12T06:38:57;3.97;;;3.50;;
11086;SDS011;5597;47.588;9.642;2023-03-12T06:41:23;4.20;;;3.40;;
11086;SDS011;5597;47.588;9.642;2023-03-12T06:43:48;3.47;;;3.13;;
11086;SDS011;5597;47.588;9.642;2023-03-12T06:46:15;3.77;;;3.40;;
11086;SDS011;5597;47.588;9.642;2023-03-12T06:48:43;3.90;;;3.30;;
11086;SDS011;5597;47.588;9.642;2023-03-12T06:51:10;3.40;;;3.10;;
11086;SDS011;5597;47.588;9.642;2023-03-12T06:53:37;4.03;;;3.40;;
11086;SDS011;5597;47.588;9.642;2023-03-12T06:56:03;3.70;;;3.23;;
11086;SDS011;5597;47.588;9.642;2023-03-12T06:58:29;3.80;;;3.40;;
11086;SDS011;5597;47.588;9.642;2023-03-12T07:00:55;4.60;;;3.63;;
11086;SDS011;5597;47.588;9.642;2023-03-12T07:03:21;3.87;;;3.47;;
11086;SDS011;5597;47.588;9.642;2023-03-12T07:05:47;5.33;;;4.00;;
11086;SDS011;5597;47.588;9.642;2023-03-12T07:08:14;5.83;;;4.67;;
11086;SDS011;5597;47.588;9.642;2023-03-12T07:10:40;4.77;;;4.27;;
11086;SDS011;5597;47.588;9.642;2023-03-12T07:13:06;4.77;;;4.17;;
11086;SDS011;5597;47.588;9.642;2023-03-12T07:15:32;5.30;;;4.43;;
11086;SDS011;5597;47.588;9.642;2023-03-12T07:17:58;5.10;;;4.60;;
11086;SDS011;5597;47.588;9.642;2023-03-12T07:20:25;4.93;;;4.43;;
11086;SDS011;5597;47.588;9.642;2023-03-12T07:22:51;4.93;;;4.43;;
11086;SDS011;5597;47.588;9.642;2023-03-12T07:25:16;5.37;;;4.87;;
11086;SDS011;5597;47.588;9.642;2023-03-12T07:27:42;5.70;;;4.87;;
11086;SDS011;5597;47.588;9.642;2023-03-12T07:30:08;5.90;;;5.23;;
11086;SDS011;5597;47.588;9.642;2023-03-12T07:32:34;6.60;;;5.67;;
11086;SDS011;5597;47.588;9.642;2023-03-12T07:35:00;8.10;;;6.90;;
11086;SDS011;5597;47.588;9.642;2023-03-12T07:37:27;7.57;;;6.77;;
11086;SDS011;5597;47.588;9.642;2023-03-12T07:39:52;7.20;;;6.07;;
11086;SDS011;5597;47.588;9.642;2023-03-12T07:42:18;6.30;;;5.50;;
11086;SDS011;5597;47.588;9.642;2023-03-12T07:44:44;5.80;;;5.20;;
11086;SDS011;5597;47.588;9.642;2023-03-12T07:47:09;5.97;;;5.23;;
11086;SDS011;5597;47.588;9.642;2023-03-12T07:49:35;6.30;;;5.67;;
11086;SDS011;5597;47.588;9.642;2023-03-12T07:52:01;5.67;;;5.07;;
11086;SDS011;5597;47.588;9.642;2023-03-12T07:54:27;5.67;;;5.07;;
11086;SDS011;5597;47.588;9.642;2023-03-12T07:56:55;5.40;;;4.77;;
11086;SDS011;5597;47.588;9.642;2023-03-12T07:59:21;5.67;;;4.53;;
11086;SDS011;5597;47.588;9.642;2023-03-12T08:01:47;5.07;;;4.40;;
11086;SDS011;5597;47.588;9.642;2023-03-12T08:04:13;4.77;;;4.20;;
11086;SDS011;5597;47.588;9.642;2023-03-12T08:06:38;4.97;;;4.30;;
11086;SDS011;5597;47.588;9.642;2023-03-12T08:09:06;4.97;;;4.17;;
11086;SDS011;5597;47.588;9.642;2023-03-12T08:11:32;5.00;;;4.27;;
11086;SDS011;5597;47.588;9.642;2023-03-12T08:13:58;4.83;;;4.33;;
11086;SDS011;5597;47.588;9.642;2023-03-12T08:16:24;4.60;;;4.10;;
11086;SDS011;5597;47.588;9.642;2023-03-12T08:18:49;4.50;;;4.10;;
11086;SDS011;5597;47.588;9.642;2023-03-12T08:21:15;5.40;;;4.53;;
11086;SDS011;5597;47.588;9.642;2023-03-12T08:23:41;4.87;;;4.33;;
11086;SDS011;5597;47.588;9.642;2023-03-12T08:26:06;4.80;;;4.30;;
11086;SDS011;5597;47.588;9.642;2023-03-12T08:28:32;4.50;;;4.10;;
11086;SDS011;5597;47.588;9.642;2023-03-12T08:30:58;4.37;;;3.80;;
11086;SDS011;5597;47.588;9.642;2023-03-12T08:33:25;4.00;;;3.60;;
11086;SDS011;5597;47.588;9.642;2023-03-12T08:35:51;4.00;;;3.60;;
11086;SDS011;5597;47.588;9.642;2023-03-12T08:38:17;3.57;;;3.23;;
11086;SDS011;5597;47.588;9.642;2023-03-12T08:40:43;4.80;;;4.30;;
11086;SDS011;5597;47.588;9.642;2023-03-12T08:43:09;4.33;;;3.93;;
11086;SDS011;5597;47.588;9.642;2023-03-12T08:45:34;4.70;;;4.03;;
11086;SDS011;5597;47.588;9.642;2023-03-12T08:48:01;4.60;;;3.90;;
11086;SDS011;5597;47.588;9.642;2023-03-12T08:50:27;5.03;;;4.23;;
11086;SDS011;5597;47.588;9.642;2023-03-12T08:52:55;5.93;;;5.10;;
11086;SDS011;5597;47.588;9.642;2023-03-12T08:55:20;5.20;;;4.70;;
11086;SDS011;5597;47.588;9.642;2023-03-12T08:57:47;7.40;;;6.10;;
11086;SDS011;5597;47.588;9.642;2023-03-12T09:00:13;5.80;;;4.90;;
11086;SDS011;5597;47.588;9.642;2023-03-12T09:02:42;5.50;;;5.00;;
11086;SDS011;5597;47.588;9.642;2023-03-12T09:05:08;5.00;;;4.47;;
11086;SDS011;5597;47.588;9.642;2023-03-12T09:07:34;4.50;;;4.10;;
11086;SDS011;5597;47.588;9.642;2023-03-12T09:09:59;4.33;;;3.93;;
11086;SDS011;5597;47.588;9.642;2023-03-12T09:12:25;4.30;;;3.67;;
11086;SDS011;5597;47.588;9.642;2023-03-12T09:14:51;4.13;;;3.67;;
11086;SDS011;5597;47.588;9.642;2023-03-12T09:17:16;4.13;;;3.73;;
11086;SDS011;5597;47.588;9.642;2023-03-12T09:19:42;4.00;;;3.53;;
11086;SDS011;5597;47.588;9.642;2023-03-12T09:22:08;4.20;;;3.80;;
11086;SDS011;5597;47.588;9.642;2023-03-12T09:24:34;3.80;;;3.50;;
11086;SDS011;5597;47.588;9.642;2023-03-12T09:27:00;3.93;;;3.50;;
11086;SDS011;5597;47.588;9.642;2023-03-12T09:29:26;4.00;;;3.60;;
11086;SDS011;5597;47.588;9.642;2023-03-12T09:31:51;3.73;;;3.37;;
11086;SDS011;5597;47.588;9.642;2023-03-12T09:34:17;3.90;;;3.60;;
11086;SDS011;5597;47.588;9.642;2023-03-12T09:36:43;3.93;;;3.53;;
11086;SDS011;5597;47.588;9.642;2023-03-12T09:39:08;3.37;;;3.07;;
11086;SDS011;5597;47.588;9.642;2023-03-12T09:41:34;4.17;;;3.30;;
11086;SDS011;5597;47.588;9.642;2023-03-12T09:44:08;3.63;;;3.30;;
11086;SDS011;5597;47.588;9.642;2023-03-12T09:49:31;3.40;;;2.80;;
11086;SDS011;5597;47.588;9.642;2023-03-12T09:52:21;2.87;;;2.60;;
11086;SDS011;5597;47.588;9.642;2023-03-12T09:54:55;3.23;;;2.93;;
11086;SDS011;5597;47.588;9.642;2023-03-12T09:57:29;3.67;;;3.37;;
11086;SDS011;5597;47.588;9.642;2023-03-12T09:59:55;3.43;;;2.97;;
11086;SDS011;5597;47.588;9.642;2023-03-12T10:10:49;3.40;;;2.63;;
11086;SDS011;5597;47.588;9.642;2023-03-12T10:16:11;3.07;;;2.73;;
11086;SDS011;5597;47.588;9.642;2023-03-12T10:26:35;2.70;;;2.50;;
11086;SDS011;5597;47.588;9.642;2023-03-12T10:29:26;2.83;;;2.53;;
11086;SDS011;5597;47.588;9.642;2023-03-12T10:34:45;8.37;;;2.50;;
11086;SDS011;5597;47.588;9.642;2023-03-12T10:37:14;2.20;;;2.00;;
11086;SDS011;5597;47.588;9.642;2023-03-12T10:39:47;2.50;;;2.30;;
11086;SDS011;5597;47.588;9.642;2023-03-12T10:42:15;3.10;;;2.30;;
11086;SDS011;5597;47.588;9.642;2023-03-12T10:44:44;2.53;;;2.33;;
11086;SDS011;5597;47.588;9.642;2023-03-12T10:47:18;2.77;;;2.57;;
11086;SDS011;5597;47.588;9.642;2023-03-12T10:52:40;3.70;;;3.30;;
11086;SDS011;5597;47.588;9.642;2023-03-12T10:57:47;3.37;;;3.07;;
11086;SDS011;5597;47.588;9.642;2023-03-12T11:00:27;3.57;;;3.27;;
11086;SDS011;5597;47.588;9.642;2023-03-12T11:02:54;3.53;;;2.87;;
11086;SDS011;5597;47.588;9.642;2023-03-12T11:05:27;2.93;;;2.63;;
11086;SDS011;5597;47.588;9.642;2023-03-12T11:07:55;4.33;;;3.60;;
11086;SDS011;5597;47.588;9.642;2023-03-12T11:15:50;4.57;;;3.10;;
11086;SDS011;5597;47.588;9.642;2023-03-12T11:20:50;3.13;;;2.83;;
11086;SDS011;5597;47.588;9.642;2023-03-12T11:23:27;3.27;;;2.93;;
11086;SDS011;5597;47.588;9.642;2023-03-12T11:26:04;2.83;;;2.63;;
11086;SDS011;5597;47.588;9.642;2023-03-12T11:28:35;2.43;;;2.23;;
11086;SDS011;5597;47.588;9.642;2023-03-12T11:31:04;2.70;;;2.50;;
11086;SDS011;5597;47.588;9.642;2023-03-12T11:33:39;3.37;;;2.27;;
11086;SDS011;5597;47.588;9.642;2023-03-12T11:39:02;2.53;;;2.20;;
11086;SDS011;5597;47.588;9.642;2023-03-12T11:50:46;2.93;;;2.67;;
11086;SDS011;5597;47.588;9.642;2023-03-12T11:53:33;3.43;;;2.70;;
11086;SDS011;5597;47.588;9.642;2023-03-12T12:04:21;2.73;;;2.20;;
11086;SDS011;5597;47.588;9.642;2023-03-12T12:23:40;2.00;;;1.80;;
11086;SDS011;5597;47.588;9.642;2023-03-12T12:31:29;1.17;;;1.07;;
11086;SDS011;5597;47.588;9.642;2023-03-12T12:36:33;1.20;;;1.10;;
11086;SDS011;5597;47.588;9.642;2023-03-12T12:39:02;1.20;;;1.10;;
11086;SDS011;5597;47.588;9.642;2023-03-12T12:41:53;1.70;;;1.30;;
11086;SDS011;5597;47.588;9.642;2023-03-12T12:44:40;1.30;;;1.20;;
11086;SDS011;5597;47.588;9.642;2023-03-12T12:47:11;1.20;;;1.10;;
11086;SDS011;5597;47.588;9.642;2023-03-12T12:49:42;3.40;;;1.33;;
11086;SDS011;5597;47.588;9.642;2023-03-12T12:52:18;1.40;;;1.30;;
11086;SDS011;5597;47.588;9.642;2023-03-12T12:54:49;1.70;;;1.30;;
11086;SDS011;5597;47.588;9.642;2023-03-12T12:57:27;1.43;;;1.30;;
11086;SDS011;5597;47.588;9.642;2023-03-12T13:02:37;1.20;;;1.10;;
11086;SDS011;5597;47.588;9.642;2023-03-12T13:05:12;1.27;;;1.17;;
11086;SDS011;5597;47.588;9.642;2023-03-12T13:07:53;2.27;;;1.80;;
11086;SDS011;5597;47.588;9.642;2023-03-12T13:10:38;1.77;;;1.60;;
11086;SDS011;5597;47.588;9.642;2023-03-12T13:13:10;2.13;;;1.30;;
11086;SDS011;5597;47.588;9.642;2023-03-12T13:15:42;1.97;;;1.60;;
11086;SDS011;5597;47.588;9.642;2023-03-12T13:18:20;2.80;;;1.73;;
11086;SDS011;5597;47.588;9.642;2023-03-12T13:23:24;1.87;;;1.40;;
11086;SDS011;5597;47.588;9.642;2023-03-12T13:26:02;2.57;;;1.60;;
11086;SDS011;5597;47.588;9.642;2023-03-12T13:33:48;1.70;;;1.40;;
11086;SDS011;5597;47.588;9.642;2023-03-12T13:41:29;2.37;;;1.83;;
11086;SDS011;5597;47.588;9.642;2023-03-12T13:43:55;2.13;;;1.83;;
11086;SDS011;5597;47.588;9.642;2023-03-12T13:46:28;2.10;;;1.50;;
11086;SDS011;5597;47.588;9.642;2023-03-12T13:49:02;2.90;;;1.60;;
11086;SDS011;5597;47.588;9.642;2023-03-12T13:51:30;1.57;;;1.40;;
11086;SDS011;5597;47.588;9.642;2023-03-12T13:53:59;2.20;;;1.57;;
11086;SDS011;5597;47.588;9.642;2023-03-12T13:56:30;2.33;;;1.50;;
11086;SDS011;5597;47.588;9.642;2023-03-12T13:59:04;2.20;;;1.50;;
11086;SDS011;5597;47.588;9.642;2023-03-12T14:01:42;3.13;;;1.47;;
11086;SDS011;5597;47.588;9.642;2023-03-12T14:04:22;3.03;;;1.50;;
11086;SDS011;5597;47.588;9.642;2023-03-12T14:12:32;3.10;;;1.43;;
11086;SDS011;5597;47.588;9.642;2023-03-12T14:15:20;2.17;;;1.10;;
11086;SDS011;5597;47.588;9.642;2023-03-12T14:18:17;2.13;;;1.03;;
11086;SDS011;5597;47.588;9.642;2023-03-12T14:20:53;2.20;;;1.00;;
11086;SDS011;5597;47.588;9.642;2023-03-12T14:23:23;1.90;;;1.07;;
11086;SDS011;5597;47.588;9.642;2023-03-12T14:25:56;1.20;;;0.90;;
11086;SDS011;5597;47.588;9.642;2023-03-12T14:28:24;0.80;;;0.70;;
11086;SDS011;5597;47.588;9.642;2023-03-12T14:33:23;1.50;;;1.10;;
11086;SDS011;5597;47.588;9.642;2023-03-12T14:36:05;1.30;;;0.90;;
11086;SDS011;5597;47.588;9.642;2023-03-12T14:38:36;1.57;;;1.00;;
11086;SDS011;5597;47.588;9.642;2023-03-12T14:41:06;3.77;;;1.10;;
11086;SDS011;5597;47.588;9.642;2023-03-12T14:43:39;2.13;;;0.90;;
11086;SDS011;5597;47.588;9.642;2023-03-12T14:46:15;1.20;;;1.00;;
11086;SDS011;5597;47.588;9.642;2023-03-12T14:48:45;1.47;;;0.83;;
11086;SDS011;5597;47.588;9.642;2023-03-12T14:51:16;1.43;;;0.97;;
11086;SDS011;5597;47.588;9.642;2023-03-12T14:53:47;1.90;;;0.90;;
11086;SDS011;5597;47.588;9.642;2023-03-12T14:56:14;1.20;;;0.97;;
11086;SDS011;5597;47.588;9.642;2023-03-12T14:58:48;2.37;;;1.47;;
11086;SDS011;5597;47.588;9.642;2023-03-12T15:01:22;1.60;;;1.10;;
11086;SDS011;5597;47.588;9.642;2023-03-12T15:03:51;4.17;;;1.40;;
11086;SDS011;5597;47.588;9.642;2023-03-12T15:06:32;3.63;;;1.30;;
11086;SDS011;5597;47.588;9.642;2023-03-12T15:09:04;1.80;;;1.20;;
11086;SDS011;5597;47.588;9.642;2023-03-12T15:11:32;2.60;;;1.20;;
11086;SDS011;5597;47.588;9.642;2023-03-12T15:14:07;3.37;;;1.23;;
11086;SDS011;5597;47.588;9.642;2023-03-12T15:16:38;2.47;;;1.33;;
11086;SDS011;5597;47.588;9.642;2023-03-12T15:19:05;3.67;;;1.60;;
11086;SDS011;5597;47.588;9.642;2023-03-12T15:21:33;4.87;;;2.03;;
11086;SDS011;5597;47.588;9.642;2023-03-12T15:24:00;9.17;;;4.23;;
11086;SDS011;5597;47.588;9.642;2023-03-12T15:26:27;6.10;;;3.17;;
11086;SDS011;5597;47.588;9.642;2023-03-12T15:31:25;4.10;;;2.07;;
11086;SDS011;5597;47.588;9.642;2023-03-12T15:34:01;4.37;;;2.20;;
11086;SDS011;5597;47.588;9.642;2023-03-12T15:36:29;2.43;;;1.37;;
11086;SDS011;5597;47.588;9.642;2023-03-12T15:39:03;1.37;;;1.17;;
11086;SDS011;5597;47.588;9.642;2023-03-12T15:41:42;1.80;;;1.20;;
11086;SDS011;5597;47.588;9.642;2023-03-12T15:47:05;7.20;;;3.90;;
11086;SDS011;5597;47.588;9.642;2023-03-12T15:49:35;8.60;;;5.33;;
11086;SDS011;5597;47.588;9.642;2023-03-12T15:57:31;2.50;;;1.30;;
11086;SDS011;5597;47.588;9.642;2023-03-12T16:00:13;2.70;;;0.97;;
11086;SDS011;5597;47.588;9.642;2023-03-12T16:03:17;2.33;;;1.00;;
11086;SDS011;5597;47.588;9.642;2023-03-12T16:05:41;1.73;;;0.83;;
11086;SDS011;5597;47.588;9.642;2023-03-12T16:08:20;1.00;;;0.90;;
11086;SDS011;5597;47.588;9.642;2023-03-12T16:10:50;2.33;;;0.90;;
11086;SDS011;5597;47.588;9.642;2023-03-12T16:13:18;0.93;;;0.83;;
11086;SDS011;5597;47.588;9.642;2023-03-12T16:15:44;1.47;;;1.07;;
11086;SDS011;5597;47.588;9.642;2023-03-12T16:18:12;4.00;;;3.00;;
11086;SDS011;5597;47.588;9.642;2023-03-12T16:20:38;5.40;;;4.47;;
11086;SDS011;5597;47.588;9.642;2023-03-12T16:23:04;8.67;;;6.00;;
11086;SDS011;5597;47.588;9.642;2023-03-12T16:25:30;5.23;;;4.60;;
11086;SDS011;5597;47.588;9.642;2023-03-12T16:27:57;4.80;;;3.90;;
11086;SDS011;5597;47.588;9.642;2023-03-12T16:30:27;3.80;;;3.40;;
11086;SDS011;5597;47.588;9.642;2023-03-12T16:32:54;3.00;;;2.70;;
11086;SDS011;5597;47.588;9.642;2023-03-12T16:35:21;2.43;;;2.23;;
11086;SDS011;5597;47.588;9.642;2023-03-12T16:37:47;3.00;;;2.40;;
11086;SDS011;5597;47.588;9.642;2023-03-12T16:40:13;2.47;;;2.17;;
11086;SDS011;5597;47.588;9.642;2023-03-12T16:42:41;2.50;;;2.00;;
11086;SDS011;5597;47.588;9.642;2023-03-12T16:45:10;2.60;;;1.87;;
11086;SDS011;5597;47.588;9.642;2023-03-12T16:47:38;1.43;;;1.30;;
11086;SDS011;5597;47.588;9.642;2023-03-12T16:50:23;1.50;;;1.40;;
11086;SDS011;5597;47.588;9.642;2023-03-12T16:52:49;2.00;;;1.80;;
11086;SDS011;5597;47.588;9.642;2023-03-12T16:55:16;3.17;;;2.70;;
11086;SDS011;5597;47.588;9.642;2023-03-12T16:57:46;3.57;;;2.50;;
11086;SDS011;5597;47.588;9.642;2023-03-12T17:00:17;4.13;;;3.60;;
11086;SDS011;5597;47.588;9.642;2023-03-12T17:02:45;2.60;;;1.93;;
11086;SDS011;5597;47.588;9.642;2023-03-12T17:05:11;1.60;;;1.50;;
11086;SDS011;5597;47.588;9.642;2023-03-12T17:07:37;2.27;;;1.50;;
11086;SDS011;5597;47.588;9.642;2023-03-12T17:10:03;2.60;;;1.43;;
11086;SDS011;5597;47.588;9.642;2023-03-12T17:12:31;1.67;;;1.40;;
11086;SDS011;5597;47.588;9.642;2023-03-12T17:15:00;1.83;;;1.67;;